createdAt,value
2023-02-24T00:00:38.129Z,60.78
2023-02-24T00:03:06.371Z,65.75
2023-02-24T00:05:36.189Z,61.67
2023-02-24T00:08:04.445Z,58.97
2023-02-24T00:10:33.186Z,60.40
2023-02-24T00:13:01.249Z,61.80
2023-02-24T00:15:29.714Z,58.28
2023-02-24T00:17:58.516Z,59.95
2023-02-24T00:20:26.692Z,52.42
2023-02-24T00:22:54.719Z,58.40
2023-02-24T00:25:22.608Z,56.20
2023-02-24T00:27:50.727Z,56.95
2023-02-24T00:30:21.576Z,56.78
2023-02-24T00:32:50.272Z,62.28
2023-02-24T00:35:18.269Z,62.22
2023-02-24T00:37:51.580Z,73.68
2023-02-24T00:40:23.811Z,72.55
2023-02-24T00:42:54.122Z,73.57
2023-02-24T00:45:22.245Z,69.97
2023-02-24T00:47:50.612Z,68.00
2023-02-24T00:50:18.592Z,56.30
2023-02-24T00:52:48.281Z,53.30
2023-02-24T00:55:16.396Z,57.00
2023-02-24T00:57:45.306Z,57.80
2023-02-24T01:00:15.325Z,63.35
2023-02-24T01:02:48.006Z,63.38
2023-02-24T01:05:16.264Z,65.63
2023-02-24T01:07:44.261Z,68.32
2023-02-24T01:10:12.651Z,70.00
2023-02-24T01:12:50.034Z,74.50
2023-02-24T01:15:20.753Z,69.47
2023-02-24T01:17:48.856Z,69.82
2023-02-24T01:20:18.893Z,67.88
2023-02-24T01:22:50.271Z,58.58
2023-02-24T01:25:20.714Z,65.22
2023-02-24T01:27:49.650Z,69.22
2023-02-24T01:30:18.618Z,73.07
2023-02-24T01:32:48.217Z,76.55
2023-02-24T01:35:16.786Z,69.63
2023-02-24T01:37:45.755Z,61.65
2023-02-24T01:40:18.998Z,59.10
2023-02-24T01:42:47.949Z,56.47
2023-02-24T01:45:21.473Z,52.20
2023-02-24T01:47:50.364Z,55.47
2023-02-24T01:50:22.234Z,50.58
2023-02-24T01:52:56.281Z,50.85
2023-02-24T01:55:32.867Z,54.15
2023-02-24T01:58:05.349Z,62.65
2023-02-24T02:00:45.394Z,68.17
2023-02-24T02:03:35.331Z,73.78
2023-02-24T02:06:11.495Z,80.18
2023-02-24T02:08:43.708Z,75.82
2023-02-24T02:11:20.607Z,70.28
2023-02-24T02:13:51.872Z,77.60
2023-02-24T02:16:31.943Z,76.32
2023-02-24T02:19:18.737Z,78.88
2023-02-24T02:22:12.794Z,84.80
2023-02-24T02:25:09.745Z,90.45
2023-02-24T02:28:10.722Z,81.28
2023-02-24T02:30:44.033Z,78.95
2023-02-24T02:36:07.103Z,69.37
2023-02-24T02:38:45.051Z,70.90
2023-02-24T02:41:36.582Z,67.75
2023-02-24T02:44:21.728Z,66.95
2023-02-24T02:47:00.994Z,73.75
2023-02-24T02:49:34.439Z,70.35
2023-02-24T02:52:13.875Z,68.03
2023-02-24T02:54:50.618Z,70.28
2023-02-24T02:57:25.485Z,56.95
2023-02-24T03:00:10.786Z,62.05
2023-02-24T03:02:50.754Z,64.03
2023-02-24T03:05:29.749Z,67.53
2023-02-24T03:08:04.917Z,68.97
2023-02-24T03:10:34.497Z,67.05
2023-02-24T03:13:06.164Z,68.35
2023-02-24T03:15:36.564Z,62.08
2023-02-24T03:18:12.432Z,61.15
2023-02-24T03:20:47.527Z,59.47
2023-02-24T03:23:26.419Z,66.20
2023-02-24T03:26:17.433Z,63.95
2023-02-24T03:29:17.549Z,70.50
2023-02-24T03:32:03.462Z,58.83
2023-02-24T03:34:40.894Z,63.17
2023-02-24T03:37:09.742Z,51.40
2023-02-24T03:39:39.285Z,53.60
2023-02-24T03:42:19.207Z,52.63
2023-02-24T03:44:48.376Z,51.17
2023-02-24T03:47:20.486Z,52.30
2023-02-24T03:49:50.516Z,45.08
2023-02-24T03:52:42.736Z,53.53
2023-02-24T03:55:59.000Z,59.15
2023-02-24T03:59:01.972Z,59.40
2023-02-24T04:01:58.072Z,67.05
2023-02-24T04:04:48.009Z,72.18
2023-02-24T04:07:45.766Z,68.88
2023-02-24T04:10:33.217Z,72.13
2023-02-24T04:13:35.630Z,66.35
2023-02-24T04:16:28.336Z,69.25
2023-02-24T04:19:03.013Z,67.18
2023-02-24T04:21:34.395Z,74.15
2023-02-24T04:24:11.628Z,74.38
2023-02-24T04:26:41.461Z,64.32
2023-02-24T04:29:17.620Z,58.80
2023-02-24T04:31:51.019Z,55.47
2023-02-24T04:34:20.359Z,49.58
2023-02-24T04:36:50.596Z,44.92
2023-02-24T04:39:21.030Z,61.90
2023-02-24T04:41:53.017Z,55.20
2023-02-24T04:44:22.554Z,48.22
2023-02-24T04:46:51.401Z,57.97
2023-02-24T04:49:20.760Z,54.55
2023-02-24T04:51:49.285Z,54.53
2023-02-24T04:54:19.290Z,53.15
2023-02-24T04:56:50.930Z,53.65
2023-02-24T04:59:20.886Z,57.38
2023-02-24T05:01:53.138Z,58.53
2023-02-24T05:04:21.110Z,55.78
2023-02-24T05:06:49.415Z,46.10
2023-02-24T05:09:18.254Z,49.05
2023-02-24T05:11:49.316Z,49.80
2023-02-24T05:14:21.127Z,43.70
2023-02-24T05:16:49.678Z,49.78
2023-02-24T05:19:39.112Z,52.10
2023-02-24T05:22:07.685Z,47.22
2023-02-24T05:24:35.836Z,55.67
2023-02-24T05:27:04.131Z,43.72
2023-02-24T05:29:35.392Z,45.38
2023-02-24T05:32:05.844Z,49.90
2023-02-24T05:34:34.728Z,59.40
2023-02-24T05:37:10.525Z,57.40
2023-02-24T05:39:38.821Z,63.65
2023-02-24T05:42:07.462Z,66.97
2023-02-24T05:44:36.381Z,62.85
2023-02-24T05:47:05.833Z,66.03
2023-02-24T05:49:35.349Z,63.40
2023-02-24T05:52:10.284Z,67.28
2023-02-24T05:54:44.167Z,68.38
2023-02-24T05:57:19.783Z,67.13
2023-02-24T05:59:51.973Z,65.50
2023-02-24T06:02:27.888Z,65.65
2023-02-24T06:04:56.185Z,64.68
2023-02-24T06:07:28.710Z,65.80
2023-02-24T06:10:00.269Z,64.18
2023-02-24T06:12:31.283Z,58.80
2023-02-24T06:14:59.620Z,51.40
2023-02-24T06:17:28.228Z,51.72
2023-02-24T06:19:56.456Z,57.78
2023-02-24T06:22:26.817Z,68.82
2023-02-24T06:24:57.016Z,64.20
2023-02-24T06:27:25.734Z,62.03
2023-02-24T06:29:55.059Z,65.30
2023-02-24T06:32:26.225Z,55.38
2023-02-24T06:34:58.384Z,51.25
2023-02-24T06:37:27.233Z,41.70
2023-02-24T06:39:58.475Z,45.25
2023-02-24T06:42:55.916Z,46.78
2023-02-24T06:48:50.927Z,44.35
2023-02-24T06:51:20.872Z,39.17
2023-02-24T07:00:18.003Z,36.25
2023-02-24T07:02:48.567Z,44.65
2023-02-24T07:05:19.625Z,49.80
2023-02-24T07:07:51.423Z,44.15
2023-02-24T07:10:21.202Z,36.30
2023-02-24T07:12:51.248Z,36.75
2023-02-24T07:15:19.262Z,37.60
2023-02-24T07:17:48.522Z,170.00
2023-02-24T07:20:25.670Z,52.28
2023-02-24T07:22:53.821Z,40.13
2023-02-24T07:25:34.205Z,39.75
2023-02-24T07:28:02.386Z,34.80
2023-02-24T07:30:30.833Z,36.72
2023-02-24T07:32:59.827Z,40.30
2023-02-24T07:35:28.661Z,33.47
2023-02-24T07:38:02.318Z,36.25
2023-02-24T07:40:33.428Z,34.65
2023-02-24T07:43:02.441Z,41.78
2023-02-24T07:45:31.054Z,51.20
2023-02-24T07:48:01.390Z,51.78
2023-02-24T07:50:32.888Z,54.90
2023-02-24T07:53:05.174Z,49.10
2023-02-24T07:55:38.213Z,50.63
2023-02-24T07:58:34.518Z,51.58
2023-02-24T08:01:08.888Z,44.30
2023-02-24T08:03:41.655Z,45.92
2023-02-24T08:06:15.949Z,49.50
2023-02-24T08:08:58.027Z,44.05
2023-02-24T08:11:34.671Z,46.03
2023-02-24T08:14:14.047Z,44.97
2023-02-24T08:16:45.339Z,44.55
2023-02-24T08:19:22.026Z,46.17
2023-02-24T08:21:53.135Z,43.22
2023-02-24T08:24:25.377Z,42.65
2023-02-24T08:27:05.196Z,37.57
2023-02-24T08:29:40.461Z,42.80
2023-02-24T08:32:11.892Z,40.00
2023-02-24T08:34:39.890Z,42.97
2023-02-24T08:37:07.878Z,46.60
2023-02-24T08:39:36.576Z,42.30
2023-02-24T08:42:05.078Z,45.08
2023-02-24T08:44:35.200Z,39.45
2023-02-24T08:47:05.589Z,45.65
2023-02-24T08:49:34.163Z,42.28
2023-02-24T08:52:02.545Z,50.35
2023-02-24T08:54:32.185Z,44.22
2023-02-24T08:57:09.742Z,43.30
2023-02-24T08:59:38.113Z,37.85
2023-02-24T09:02:18.759Z,41.65
2023-02-24T09:04:49.114Z,46.58
2023-02-24T09:07:23.148Z,42.10
2023-02-24T09:09:56.360Z,43.22
2023-02-24T09:15:01.465Z,42.90
2023-02-24T09:21:16.143Z,46.13
2023-02-24T09:23:46.988Z,46.90
2023-02-24T09:26:15.248Z,43.00
2023-02-24T09:28:52.375Z,47.33
2023-02-24T09:31:24.873Z,48.47
2023-02-24T09:33:53.214Z,45.08
2023-02-24T09:36:31.051Z,51.00
2023-02-24T09:39:00.656Z,42.90
2023-02-24T09:41:53.762Z,48.28
2023-02-24T09:44:52.995Z,38.95
2023-02-24T09:48:12.294Z,41.42
2023-02-24T09:51:04.542Z,39.72
2023-02-24T09:53:49.528Z,42.83
2023-02-24T09:56:27.105Z,39.72
2023-02-24T09:59:10.427Z,38.88
2023-02-24T10:01:45.925Z,41.63
2023-02-24T10:04:49.777Z,38.28
2023-02-24T10:07:38.536Z,38.92
2023-02-24T10:10:29.746Z,42.88
2023-02-24T10:13:14.609Z,42.72
2023-02-24T10:15:58.024Z,38.90
2023-02-24T10:18:31.631Z,43.22
2023-02-24T10:22:00.583Z,46.92
2023-02-24T10:24:41.361Z,45.60
2023-02-24T10:27:18.205Z,51.53
2023-02-24T10:30:11.060Z,45.67
2023-02-24T10:32:47.658Z,40.33
2023-02-24T10:35:18.688Z,38.72
2023-02-24T10:37:46.962Z,39.90
2023-02-24T10:40:26.541Z,35.15
2023-02-24T10:43:11.023Z,37.95
2023-02-24T10:45:47.499Z,32.90
2023-02-24T10:48:41.023Z,33.75
2023-02-24T10:51:23.260Z,33.63
2023-02-24T10:54:14.610Z,41.72
2023-02-24T10:56:55.499Z,32.75
2023-02-24T10:59:48.508Z,35.53
2023-02-24T11:02:57.134Z,34.13
2023-02-24T11:05:38.588Z,31.77
2023-02-24T11:08:47.039Z,31.95
2023-02-24T11:11:42.721Z,29.40
2023-02-24T11:14:36.091Z,26.15
2023-02-24T11:17:17.515Z,25.15
2023-02-24T11:19:55.558Z,24.23
2023-02-24T11:22:36.936Z,29.75
2023-02-24T11:25:32.756Z,30.65
2023-02-24T11:28:00.934Z,25.42
2023-02-24T11:30:43.713Z,29.23
2023-02-24T11:33:42.860Z,28.77
2023-02-24T11:36:33.464Z,24.27
2023-02-24T11:39:22.702Z,23.85
2023-02-24T11:41:55.631Z,20.77
2023-02-24T11:44:29.827Z,19.40
2023-02-24T11:47:04.121Z,17.15
2023-02-24T11:49:42.157Z,16.17
2023-02-24T11:52:19.564Z,15.43
2023-02-24T11:54:53.799Z,15.88
2023-02-24T11:57:29.569Z,15.68
2023-02-24T12:00:20.349Z,14.43
2023-02-24T12:02:59.346Z,13.98
2023-02-24T12:05:39.316Z,14.40
2023-02-24T12:08:41.454Z,13.32
2023-02-24T12:11:18.460Z,29.02
2023-02-24T12:13:54.114Z,16.75
2023-02-24T12:16:28.632Z,22.13
2023-02-24T12:19:06.671Z,27.02
2023-02-24T12:21:39.600Z,24.25
2023-02-24T12:24:12.599Z,28.27
2023-02-24T12:29:42.770Z,23.50
2023-02-24T12:32:23.034Z,63.15
2023-02-24T12:35:22.667Z,24.55
2023-02-24T12:38:12.509Z,22.08
2023-02-24T12:40:46.062Z,12.23
2023-02-24T12:43:41.333Z,12.93
2023-02-24T12:46:31.525Z,29.17
2023-02-24T12:49:05.481Z,16.98
2023-02-24T12:51:33.728Z,16.63
2023-02-24T12:54:07.674Z,24.45
2023-02-24T12:57:07.945Z,30.92
2023-02-24T12:59:41.921Z,28.88
2023-02-24T13:02:48.562Z,21.02
2023-02-24T13:05:28.413Z,20.40
2023-02-24T13:08:11.983Z,21.77
2023-02-24T13:11:13.474Z,23.05
2023-02-24T13:13:56.522Z,20.48
2023-02-24T13:16:34.471Z,22.60
2023-02-24T13:19:29.864Z,22.05
2023-02-24T13:22:03.700Z,23.17
2023-02-24T13:24:32.262Z,22.23
2023-02-24T13:27:14.858Z,23.17
2023-02-24T13:29:57.187Z,24.45
2023-02-24T13:32:38.985Z,24.75
2023-02-24T13:35:16.584Z,27.15
2023-02-24T13:37:47.017Z,27.75
2023-02-24T13:40:22.416Z,28.30
2023-02-24T13:45:59.924Z,30.73
2023-02-24T13:48:32.083Z,28.23
2023-02-24T13:51:10.559Z,27.30
2023-02-24T13:54:04.194Z,22.83
2023-02-24T13:59:35.395Z,21.08
2023-02-24T14:02:27.306Z,17.83
2023-02-24T14:04:57.816Z,18.80
2023-02-24T14:07:29.628Z,21.25
2023-02-24T14:10:05.334Z,16.77
2023-02-24T14:12:36.059Z,14.52
2023-02-24T14:15:05.469Z,18.08
2023-02-24T14:17:36.504Z,19.67
2023-02-24T14:20:11.580Z,15.27
2023-02-24T14:22:55.078Z,16.08
2023-02-24T14:25:24.270Z,18.35
2023-02-24T14:27:55.965Z,15.38
2023-02-24T14:30:32.286Z,15.90
2023-02-24T14:33:02.169Z,18.27
2023-02-24T14:35:35.310Z,19.85
2023-02-24T14:38:27.626Z,16.42
2023-02-24T14:40:56.068Z,13.68
2023-02-24T14:43:24.045Z,13.60
2023-02-24T14:45:53.344Z,11.00
2023-02-24T14:48:29.093Z,14.43
2023-02-24T14:51:10.410Z,15.15
2023-02-24T14:53:46.348Z,17.40
2023-02-24T14:56:15.268Z,10.65
2023-02-24T14:58:50.928Z,16.98
2023-02-24T15:01:29.045Z,13.50
2023-02-24T15:04:01.542Z,20.48
2023-02-24T15:06:31.937Z,12.75
2023-02-24T15:09:22.211Z,15.05
2023-02-24T15:11:53.428Z,13.27
2023-02-24T15:14:30.289Z,14.48
2023-02-24T15:17:11.974Z,13.52
2023-02-24T15:19:46.470Z,17.25
2023-02-24T15:22:39.331Z,15.32
2023-02-24T15:25:24.036Z,13.20
2023-02-24T15:28:01.546Z,16.92
2023-02-24T15:30:38.855Z,18.73
2023-02-24T15:33:15.762Z,17.40
2023-02-24T15:35:52.603Z,17.13
2023-02-24T15:38:25.546Z,17.48
2023-02-24T15:41:00.107Z,18.40
2023-02-24T15:43:48.629Z,17.52
2023-02-24T15:46:19.721Z,17.67
2023-02-24T15:48:53.679Z,17.45
2023-02-24T15:51:25.027Z,18.10
2023-02-24T15:53:53.484Z,18.02
2023-02-24T15:56:21.891Z,19.05
2023-02-24T15:58:50.301Z,16.65
2023-02-24T16:01:18.921Z,17.85
2023-02-24T16:03:47.312Z,19.13
2023-02-24T16:06:20.214Z,20.45
2023-02-24T16:08:50.427Z,17.85
2023-02-24T16:11:23.382Z,19.50
2023-02-24T16:14:01.020Z,14.63
2023-02-24T16:16:29.670Z,18.45
2023-02-24T16:18:57.758Z,20.83
2023-02-24T16:21:25.997Z,18.52
2023-02-24T16:23:54.115Z,17.08
2023-02-24T16:26:23.605Z,25.05
2023-02-24T16:28:57.310Z,19.30
2023-02-24T16:31:26.527Z,23.52
2023-02-24T16:33:56.244Z,23.75
2023-02-24T16:36:26.593Z,24.38
2023-02-24T16:38:54.937Z,25.92
2023-02-24T16:41:23.779Z,31.27
2023-02-24T16:43:54.251Z,36.20
2023-02-24T16:46:23.596Z,30.67
2023-02-24T16:48:53.608Z,32.25
2023-02-24T16:51:25.040Z,33.72
2023-02-24T16:53:53.168Z,33.70
2023-02-24T16:56:21.928Z,30.73
2023-02-24T16:58:50.781Z,29.17
2023-02-24T17:01:21.730Z,33.47
2023-02-24T17:03:53.115Z,29.35
2023-02-24T17:06:23.825Z,32.50
2023-02-24T17:08:52.806Z,36.10
2023-02-24T17:11:23.770Z,32.05
2023-02-24T17:13:51.934Z,30.63
2023-02-24T17:16:21.491Z,32.30
2023-02-24T17:18:49.889Z,84.57
2023-02-24T17:21:18.350Z,75.15
2023-02-24T17:23:46.427Z,93.50
2023-02-24T17:26:15.834Z,60.22
2023-02-24T17:28:44.193Z,54.60
2023-02-24T17:31:12.612Z,65.38
2023-02-24T17:33:41.659Z,59.50
2023-02-24T17:36:09.737Z,52.20
2023-02-24T17:38:38.247Z,39.90
2023-02-24T17:41:07.323Z,44.22
2023-02-24T17:43:35.739Z,37.00
2023-02-24T17:46:06.999Z,49.08
2023-02-24T17:48:35.702Z,53.95
2023-02-24T17:51:03.854Z,57.95
2023-02-24T17:53:32.355Z,61.08
2023-02-24T17:56:07.676Z,53.40
2023-02-24T17:58:36.364Z,51.75
2023-02-24T18:01:06.886Z,52.95
2023-02-24T18:03:36.632Z,51.65
2023-02-24T18:06:10.535Z,57.08
2023-02-24T18:08:39.657Z,54.60
2023-02-24T18:11:10.173Z,60.80
2023-02-24T18:13:38.200Z,49.20
2023-02-24T18:16:14.910Z,56.78
2023-02-24T18:18:43.192Z,45.28
2023-02-24T18:21:11.263Z,37.83
2023-02-24T18:23:40.611Z,35.72
2023-02-24T18:26:11.013Z,32.50
2023-02-24T18:28:39.972Z,34.13
2023-02-24T18:31:13.217Z,31.75
2023-02-24T18:33:41.398Z,28.50
2023-02-24T18:36:10.896Z,31.02
2023-02-24T18:38:39.430Z,37.05
2023-02-24T18:41:15.711Z,49.20
2023-02-24T18:43:44.513Z,59.15
2023-02-24T18:46:14.764Z,58.38
2023-02-24T18:48:46.258Z,60.72
2023-02-24T18:51:20.310Z,58.83
2023-02-24T18:53:52.615Z,58.45
2023-02-24T18:56:24.459Z,58.40
2023-02-24T18:58:56.915Z,60.70
2023-02-24T19:01:27.566Z,80.30
2023-02-24T19:03:56.491Z,68.85
2023-02-24T19:06:27.095Z,64.55
2023-02-24T19:08:58.991Z,57.65
2023-02-24T19:11:27.846Z,52.85
2023-02-24T19:13:57.808Z,57.75
2023-02-24T19:16:26.413Z,60.67
2023-02-24T19:18:56.679Z,60.90
2023-02-24T19:21:27.284Z,63.22
2023-02-24T19:23:55.490Z,57.85
2023-02-24T19:26:26.715Z,58.40
2023-02-24T19:28:55.286Z,60.65
2023-02-24T19:31:27.414Z,64.55
2023-02-24T19:34:00.480Z,58.75
2023-02-24T19:36:31.538Z,49.55
2023-02-24T19:39:00.351Z,50.22
2023-02-24T19:41:28.546Z,46.65
2023-02-24T19:43:56.952Z,48.80
2023-02-24T19:46:25.383Z,46.30
2023-02-24T19:48:56.092Z,45.00
2023-02-24T19:51:25.685Z,44.60
2023-02-24T19:53:55.579Z,35.13
2023-02-24T19:56:29.313Z,36.03
2023-02-24T19:59:00.039Z,36.15
2023-02-24T20:01:30.194Z,67.28
2023-02-24T20:04:00.457Z,58.72
2023-02-24T20:06:35.791Z,69.57
2023-02-24T20:09:32.549Z,68.88
2023-02-24T20:12:01.939Z,68.68
2023-02-24T20:14:30.278Z,78.30
2023-02-24T20:16:58.483Z,84.03
2023-02-24T20:19:27.129Z,83.80
2023-02-24T20:21:55.326Z,82.72
2023-02-24T20:24:23.263Z,70.10
2023-02-24T20:26:51.793Z,75.03
2023-02-24T20:29:21.647Z,75.53
2023-02-24T20:31:50.164Z,80.60
2023-02-24T20:34:18.324Z,89.00
2023-02-24T20:36:46.420Z,75.97
2023-02-24T20:39:39.999Z,77.75
2023-02-24T20:42:07.943Z,70.88
2023-02-24T20:44:36.007Z,75.45
2023-02-24T20:47:04.142Z,99.13
2023-02-24T20:49:32.989Z,80.72
2023-02-24T20:52:00.884Z,73.38
2023-02-24T20:54:29.049Z,66.53
2023-02-24T20:56:57.018Z,69.97
2023-02-24T20:59:24.934Z,67.93
2023-02-24T21:01:53.046Z,57.88
2023-02-24T21:04:21.691Z,62.45
2023-02-24T21:06:51.992Z,58.05
2023-02-24T21:09:20.069Z,47.40
2023-02-24T21:11:48.051Z,53.75
2023-02-24T21:14:16.919Z,52.92
2023-02-24T21:16:46.304Z,56.03
2023-02-24T21:19:14.416Z,59.22
2023-02-24T21:21:42.531Z,56.70
2023-02-24T21:24:10.518Z,45.55
2023-02-24T21:26:38.345Z,53.97
2023-02-24T21:29:06.335Z,45.92
2023-02-24T21:31:34.712Z,44.50
2023-02-24T21:34:02.909Z,49.92
2023-02-24T21:36:30.865Z,52.95
2023-02-24T21:38:58.855Z,48.78
2023-02-24T21:41:26.879Z,43.88
2023-02-24T21:43:55.775Z,52.53
2023-02-24T21:46:28.566Z,51.58
2023-02-24T21:48:58.514Z,54.50
2023-02-24T21:51:27.865Z,53.25
2023-02-24T21:53:57.225Z,52.95
2023-02-24T21:56:29.541Z,50.00
2023-02-24T21:59:03.722Z,53.60
2023-02-24T22:01:37.195Z,53.90
2023-02-24T22:04:08.540Z,63.15
2023-02-24T22:06:38.707Z,66.07
2023-02-24T22:09:08.663Z,49.38
2023-02-24T22:11:41.095Z,51.83
2023-02-24T22:14:14.228Z,51.93
2023-02-24T22:16:43.206Z,48.85
2023-02-24T22:19:12.053Z,51.00
2023-02-24T22:21:42.598Z,51.60
2023-02-24T22:24:14.868Z,52.75
2023-02-24T22:26:43.745Z,57.42
2023-02-24T22:29:12.022Z,55.72
2023-02-24T22:31:43.600Z,54.42
2023-02-24T22:34:13.226Z,48.80
2023-02-24T22:36:41.491Z,48.65
2023-02-24T22:39:09.775Z,53.40
2023-02-24T22:41:38.657Z,47.35
2023-02-24T22:44:07.299Z,57.13
2023-02-24T22:46:37.743Z,51.28
2023-02-24T22:49:06.015Z,50.80
2023-02-24T22:51:34.433Z,54.97
2023-02-24T22:54:02.590Z,47.47
2023-02-24T22:56:31.300Z,42.15
2023-02-24T22:59:00.943Z,41.85
2023-02-24T23:01:31.612Z,40.40
2023-02-24T23:04:01.409Z,38.80
2023-02-24T23:06:30.779Z,45.97
2023-02-24T23:09:00.930Z,43.55
2023-02-24T23:11:34.984Z,39.90
2023-02-24T23:14:06.181Z,42.60
2023-02-24T23:16:35.502Z,37.95
2023-02-24T23:19:10.689Z,44.75
2023-02-24T23:21:41.639Z,43.22
2023-02-24T23:24:11.782Z,37.50
2023-02-24T23:26:54.073Z,38.47
2023-02-24T23:29:23.668Z,39.53
2023-02-24T23:31:52.752Z,41.75
2023-02-24T23:34:21.090Z,45.20
2023-02-24T23:36:49.376Z,44.63
2023-02-24T23:39:23.105Z,61.08
2023-02-24T23:41:56.701Z,48.42
2023-02-24T23:44:25.596Z,54.15
2023-02-24T23:46:53.582Z,48.22
2023-02-24T23:49:21.578Z,51.45
2023-02-24T23:51:49.462Z,57.00
2023-02-24T23:54:18.785Z,54.50
2023-02-24T23:56:46.831Z,55.67
2023-02-24T23:59:15.620Z,35.53
